TimeEST,TemperatureF,Dew PointF,Humidity,Sea Level PressureIn,VisibilityMPH,Wind Direction,Wind SpeedMPH,Gust SpeedMPH,PrecipitationIn,Events,Conditions,WindDirDegrees,DateUTC
12:38 AM,71.6,69.8,94,30.01,6.0,Calm,Calm,-,N/A,,Overcast,0,2013-12-30 05:38:00
12:45 AM,71.6,69.8,94,30.01,8.0,Calm,Calm,-,N/A,,Overcast,0,2013-12-30 05:45:00
12:53 AM,72.0,69.1,91,30.01,10.0,Calm,Calm,-,N/A,,Overcast,0,2013-12-30 05:53:00
1:53 AM,72.0,69.1,91,30.00,10.0,WSW,4.6,-,N/A,,Overcast,240,2013-12-30 06:53:00
2:11 AM,71.6,68.0,88,30.00,10.0,SW,4.6,-,N/A,,Overcast,230,2013-12-30 07:11:00
2:53 AM,70.0,68.0,93,29.99,9.0,Calm,Calm,-,N/A,,Mostly Cloudy,0,2013-12-30 07:53:00
3:06 AM,69.8,68.0,94,29.99,9.0,Calm,Calm,-,N/A,,Mostly Cloudy,0,2013-12-30 08:06:00
3:27 AM,69.8,68.0,94,29.99,9.0,Calm,Calm,-,N/A,,Overcast,0,2013-12-30 08:27:00
3:53 AM,71.1,68.0,90,30.00,8.0,West,4.6,-,N/A,,Overcast,270,2013-12-30 08:53:00
4:53 AM,68.0,66.0,93,29.99,10.0,NW,6.9,-,N/A,,Overcast,310,2013-12-30 09:53:00
5:14 AM,68.0,64.4,88,30.00,10.0,NW,8.1,-,N/A,,Overcast,310,2013-12-30 10:14:00
5:53 AM,66.9,64.9,93,30.02,10.0,Calm,Calm,-,N/A,,Overcast,0,2013-12-30 10:53:00
6:05 AM,66.2,64.4,94,30.03,10.0,West,3.5,-,N/A,,Overcast,260,2013-12-30 11:05:00
6:53 AM,66.9,64.0,90,30.04,10.0,NW,3.5,-,N/A,,Overcast,320,2013-12-30 11:53:00
7:53 AM,66.9,64.0,90,30.08,10.0,NW,4.6,-,N/A,,Overcast,310,2013-12-30 12:53:00
8:53 AM,66.9,64.0,90,30.09,10.0,NNW,3.5,-,N/A,,Overcast,330,2013-12-30 13:53:00
9:40 AM,68.0,64.4,88,30.11,10.0,NNW,6.9,-,N/A,,Overcast,330,2013-12-30 14:40:00
9:53 AM,68.0,63.0,84,30.11,10.0,North,5.8,-,N/A,,Overcast,350,2013-12-30 14:53:00
10:53 AM,70.0,63.0,78,30.13,10.0,North,6.9,-,N/A,,Overcast,360,2013-12-30 15:53:00
11:13 AM,69.8,62.6,78,30.12,10.0,North,6.9,-,N/A,,Overcast,360,2013-12-30 16:13:00
11:53 AM,71.1,63.0,75,30.11,10.0,North,5.8,-,N/A,,Mostly Cloudy,350,2013-12-30 16:53:00
12:53 PM,71.1,63.0,75,30.10,10.0,North,5.8,-,N/A,,Overcast,360,2013-12-30 17:53:00
1:53 PM,69.1,61.0,75,30.10,10.0,North,9.2,-,N/A,,Overcast,350,2013-12-30 18:53:00
2:53 PM,68.0,61.0,78,30.10,10.0,North,8.1,-,N/A,,Overcast,10,2013-12-30 19:53:00
3:53 PM,66.9,60.1,79,30.09,10.0,NNE,5.8,-,N/A,,Overcast,30,2013-12-30 20:53:00
4:53 PM,66.0,60.1,81,30.09,10.0,North,6.9,-,N/A,,Scattered Clouds,360,2013-12-30 21:53:00
5:12 PM,64.4,60.8,88,30.11,9.0,North,8.1,-,N/A,,Mostly Cloudy,360,2013-12-30 22:12:00
5:53 PM,64.0,59.0,84,30.12,10.0,North,6.9,-,N/A,,Overcast,360,2013-12-30 22:53:00
6:53 PM,63.0,57.9,84,30.14,10.0,North,3.5,-,N/A,,Scattered Clouds,350,2013-12-30 23:53:00
7:53 PM,61.0,57.0,87,30.15,10.0,NNW,3.5,-,N/A,,Clear,330,2013-12-31 00:53:00
8:53 PM,59.0,55.9,90,30.16,7.0,NW,3.5,-,N/A,,Clear,310,2013-12-31 01:53:00
9:53 PM,59.0,57.0,93,30.18,8.0,Calm,Calm,-,N/A,,Scattered Clouds,0,2013-12-31 02:53:00
10:53 PM,57.9,55.9,93,30.18,8.0,NW,3.5,-,N/A,,Mostly Cloudy,320,2013-12-31 03:53:00
11:53 PM,60.1,57.0,90,30.18,10.0,Calm,Calm,-,N/A,,Overcast,0,2013-12-31 04:53:00